Kivalina Airport Kivalina US
ICAO: PAVL
IATA:
Category: Medium
Scheduled Services:

Elevation: 13 ft
TransAlt. 18000 ft.

Airport Communications:
ANCHORAGE CNTR:119.2
ASOS:135.8
CTAF/UNICOM:122.8
KOTZEBUE RDO:122.55

PAVL Zoom In..

Runways:

(A) RW 12 length 3000 ft width 60 ft
---- / hdg 122

(B) RW 30 length 3000 ft width 60 ft
---- / hdg 302

Location; PAVL
Day. 17 / Time. 06.53 Zulu
* Altimeter: 29.96
* Temperature: 09° c. 48.2°f.
* Wind from: 290° Speed 10 kn.
Dewpoint: 04° c.
Visibility: 7 Statute Miles.
Clouds: Few 2300 ft.
Clouds: Scattered 4000 ft.

PAVL 170653Z AUTO 29010KT 7SM FEW023 SCT040 09/04 A2996 RMK AO2 SLP144 T00940044 TSNO


Wind From 290°
Speed 10 kn.

 
 
jpsmedia.com for Web Design worldairports.se 2018   terms of use